sensor_id;sensor_type;location;lat;lon;timestamp;pressure;altitude;pressure_sealevel;temperature;humidity
76074;BME280;64776;42.636;24.358;2023-08-08T00:00:34;90037.97;;;14.01;88.75
76074;BME280;64776;42.636;24.358;2023-08-08T00:03:36;90049.72;;;13.92;90.30
76074;BME280;64776;42.636;24.358;2023-08-08T00:06:37;90033.88;;;13.83;91.20
76074;BME280;64776;42.636;24.358;2023-08-08T00:09:38;90030.66;;;14.01;91.45
76074;BME280;64776;42.636;24.358;2023-08-08T00:12:39;90013.13;;;13.95;89.48
76074;BME280;64776;42.636;24.358;2023-08-08T00:15:40;90020.47;;;13.83;89.87
76074;BME280;64776;42.636;24.358;2023-08-08T00:18:42;90015.34;;;13.91;90.49
76074;BME280;64776;42.636;24.358;2023-08-08T00:21:43;90013.66;;;13.82;89.78
76074;BME280;64776;42.636;24.358;2023-08-08T00:24:44;90003.44;;;13.80;90.46
76074;BME280;64776;42.636;24.358;2023-08-08T00:27:45;90005.63;;;13.82;89.99
76074;BME280;64776;42.636;24.358;2023-08-08T00:30:45;90008.31;;;13.82;90.54
76074;BME280;64776;42.636;24.358;2023-08-08T00:33:47;90005.84;;;13.84;91.17
76074;BME280;64776;42.636;24.358;2023-08-08T00:36:48;90018.72;;;13.91;90.82
76074;BME280;64776;42.636;24.358;2023-08-08T00:39:49;90021.50;;;13.74;90.10
76074;BME280;64776;42.636;24.358;2023-08-08T00:42:50;90017.56;;;13.81;90.11
76074;BME280;64776;42.636;24.358;2023-08-08T00:45:51;90026.78;;;13.91;89.95
76074;BME280;64776;42.636;24.358;2023-08-08T00:48:53;90024.28;;;14.04;89.65
76074;BME280;64776;42.636;24.358;2023-08-08T00:51:55;90021.84;;;14.06;89.34
76074;BME280;64776;42.636;24.358;2023-08-08T00:54:55;90022.78;;;14.14;88.65
76074;BME280;64776;42.636;24.358;2023-08-08T00:57:56;90019.59;;;14.16;89.16
76074;BME280;64776;42.636;24.358;2023-08-08T01:00:57;90009.66;;;14.05;89.17
76074;BME280;64776;42.636;24.358;2023-08-08T01:04:00;90006.44;;;14.12;89.24
76074;BME280;64776;42.636;24.358;2023-08-08T01:07:06;90008.91;;;14.10;89.28
76074;BME280;64776;42.636;24.358;2023-08-08T01:10:14;89991.28;;;14.20;89.25
76074;BME280;64776;42.636;24.358;2023-08-08T01:13:18;89994.41;;;14.24;88.99
76074;BME280;64776;42.636;24.358;2023-08-08T01:16:21;90003.72;;;14.23;88.00
76074;BME280;64776;42.636;24.358;2023-08-08T01:19:27;90001.31;;;14.14;89.39
76074;BME280;64776;42.636;24.358;2023-08-08T01:22:35;90002.28;;;14.17;89.27
76074;BME280;64776;42.636;24.358;2023-08-08T01:25:39;89998.63;;;14.20;88.90
76074;BME280;64776;42.636;24.358;2023-08-08T01:28:42;89989.78;;;14.25;88.99
76074;BME280;64776;42.636;24.358;2023-08-08T01:31:43;90007.31;;;14.37;89.35
76074;BME280;64776;42.636;24.358;2023-08-08T01:34:44;90014.06;;;14.49;87.96
76074;BME280;64776;42.636;24.358;2023-08-08T01:37:48;90025.53;;;14.49;88.82
76074;BME280;64776;42.636;24.358;2023-08-08T01:40:51;90029.69;;;14.50;88.90
76074;BME280;64776;42.636;24.358;2023-08-08T01:43:52;90024.56;;;14.52;87.84
76074;BME280;64776;42.636;24.358;2023-08-08T01:46:54;90035.81;;;14.45;88.84
76074;BME280;64776;42.636;24.358;2023-08-08T01:49:54;90035.63;;;14.32;90.07
76074;BME280;64776;42.636;24.358;2023-08-08T01:52:55;90033.03;;;14.10;90.59
76074;BME280;64776;42.636;24.358;2023-08-08T01:55:57;90029.63;;;14.15;90.26
76074;BME280;64776;42.636;24.358;2023-08-08T01:58:58;90030.59;;;14.12;90.79
76074;BME280;64776;42.636;24.358;2023-08-08T02:01:59;90024.81;;;13.97;91.73
76074;BME280;64776;42.636;24.358;2023-08-08T02:05:25;90028.28;;;13.81;92.30
76074;BME280;64776;42.636;24.358;2023-08-08T02:08:25;90016.38;;;13.76;92.31
76074;BME280;64776;42.636;24.358;2023-08-08T02:11:27;90020.31;;;13.70;92.20
76074;BME280;64776;42.636;24.358;2023-08-08T02:14:28;90027.34;;;13.73;91.56
76074;BME280;64776;42.636;24.358;2023-08-08T02:17:29;90017.56;;;13.81;90.86
76074;BME280;64776;42.636;24.358;2023-08-08T02:20:30;90011.69;;;13.88;90.44
76074;BME280;64776;42.636;24.358;2023-08-08T02:23:31;90021.38;;;14.02;90.74
76074;BME280;64776;42.636;24.358;2023-08-08T02:26:33;90023.34;;;13.96;89.46
76074;BME280;64776;42.636;24.358;2023-08-08T02:29:33;90030.66;;;13.96;89.72
76074;BME280;64776;42.636;24.358;2023-08-08T02:32:34;90048.03;;;13.83;89.64
76074;BME280;64776;42.636;24.358;2023-08-08T02:35:36;90042.63;;;13.89;90.20
76074;BME280;64776;42.636;24.358;2023-08-08T02:38:37;90048.28;;;13.80;90.27
76074;BME280;64776;42.636;24.358;2023-08-08T02:41:39;90032.31;;;13.47;89.87
76074;BME280;64776;42.636;24.358;2023-08-08T02:44:40;90009.91;;;13.39;92.08
76074;BME280;64776;42.636;24.358;2023-08-08T02:47:40;90031.84;;;13.32;92.63
76074;BME280;64776;42.636;24.358;2023-08-08T02:50:41;90032.34;;;13.25;93.24
76074;BME280;64776;42.636;24.358;2023-08-08T02:53:42;90026.47;;;13.32;93.77
76074;BME280;64776;42.636;24.358;2023-08-08T02:56:44;90030.63;;;13.27;92.87
76074;BME280;64776;42.636;24.358;2023-08-08T02:59:45;90031.88;;;13.21;92.92
76074;BME280;64776;42.636;24.358;2023-08-08T03:02:48;90031.63;;;13.02;92.28
76074;BME280;64776;42.636;24.358;2023-08-08T03:05:48;90028.47;;;12.92;93.15
76074;BME280;64776;42.636;24.358;2023-08-08T03:08:49;90035.53;;;12.84;93.14
76074;BME280;64776;42.636;24.358;2023-08-08T03:11:51;90032.84;;;12.84;93.17
76074;BME280;64776;42.636;24.358;2023-08-08T03:14:52;90041.13;;;12.86;92.90
76074;BME280;64776;42.636;24.358;2023-08-08T03:17:53;90046.97;;;12.90;93.07
76074;BME280;64776;42.636;24.358;2023-08-08T03:20:55;90046.72;;;12.83;92.87
76074;BME280;64776;42.636;24.358;2023-08-08T03:23:56;90052.09;;;12.77;93.85
76074;BME280;64776;42.636;24.358;2023-08-08T03:26:58;90051.59;;;12.90;94.12
76074;BME280;64776;42.636;24.358;2023-08-08T03:29:59;90064.97;;;12.84;93.90
76074;BME280;64776;42.636;24.358;2023-08-08T03:33:00;90066.69;;;12.87;93.87
76074;BME280;64776;42.636;24.358;2023-08-08T03:36:00;90067.44;;;12.88;93.87
76074;BME280;64776;42.636;24.358;2023-08-08T03:39:01;90062.31;;;12.95;93.63
76074;BME280;64776;42.636;24.358;2023-08-08T03:42:04;90073.50;;;12.88;93.82
76074;BME280;64776;42.636;24.358;2023-08-08T03:45:06;90080.56;;;12.97;92.42
76074;BME280;64776;42.636;24.358;2023-08-08T03:48:07;90090.53;;;12.91;92.11
76074;BME280;64776;42.636;24.358;2023-08-08T03:51:08;90104.66;;;12.91;92.14
76074;BME280;64776;42.636;24.358;2023-08-08T03:54:09;90113.69;;;12.94;91.95
76074;BME280;64776;42.636;24.358;2023-08-08T03:57:11;90115.13;;;12.95;91.76
76074;BME280;64776;42.636;24.358;2023-08-08T04:00:12;90112.94;;;12.93;91.46
76074;BME280;64776;42.636;24.358;2023-08-08T04:03:14;90111.72;;;12.89;91.92
76074;BME280;64776;42.636;24.358;2023-08-08T04:06:15;90119.50;;;12.92;91.45
76074;BME280;64776;42.636;24.358;2023-08-08T04:09:16;90119.50;;;12.92;91.15
76074;BME280;64776;42.636;24.358;2023-08-08T04:12:18;90124.63;;;12.79;90.45
76074;BME280;64776;42.636;24.358;2023-08-08T04:15:19;90123.13;;;12.62;90.58
76074;BME280;64776;42.636;24.358;2023-08-08T04:18:20;90124.84;;;12.70;90.34
76074;BME280;64776;42.636;24.358;2023-08-08T04:21:21;90140.44;;;12.77;89.16
76074;BME280;64776;42.636;24.358;2023-08-08T04:24:21;90145.78;;;12.77;88.10
76074;BME280;64776;42.636;24.358;2023-08-08T04:27:24;90148.44;;;12.66;87.83
76074;BME280;64776;42.636;24.358;2023-08-08T04:30:24;90150.59;;;12.51;88.93
76074;BME280;64776;42.636;24.358;2023-08-08T04:33:25;90166.22;;;12.69;88.32
76074;BME280;64776;42.636;24.358;2023-08-08T04:36:26;90142.13;;;12.69;88.11
76074;BME280;64776;42.636;24.358;2023-08-08T04:39:27;90140.16;;;12.59;87.55
76074;BME280;64776;42.636;24.358;2023-08-08T04:42:29;90148.66;;;12.57;87.75
76074;BME280;64776;42.636;24.358;2023-08-08T04:45:30;90156.47;;;12.66;88.18
76074;BME280;64776;42.636;24.358;2023-08-08T04:48:31;90169.41;;;12.79;87.94
76074;BME280;64776;42.636;24.358;2023-08-08T04:51:31;90170.88;;;12.91;87.31
76074;BME280;64776;42.636;24.358;2023-08-08T04:54:32;90166.50;;;12.99;86.11
76074;BME280;64776;42.636;24.358;2023-08-08T04:57:34;90169.19;;;12.99;84.71
76074;BME280;64776;42.636;24.358;2023-08-08T05:00:35;90167.00;;;12.92;85.78
76074;BME280;64776;42.636;24.358;2023-08-08T05:03:36;90156.53;;;12.99;85.71
76074;BME280;64776;42.636;24.358;2023-08-08T05:06:37;90150.16;;;12.80;86.62
76074;BME280;64776;42.636;24.358;2023-08-08T05:09:37;90158.19;;;12.75;87.37
76074;BME280;64776;42.636;24.358;2023-08-08T05:12:39;90154.03;;;12.74;87.46
76074;BME280;64776;42.636;24.358;2023-08-08T05:15:40;90163.78;;;12.71;87.90
76074;BME280;64776;42.636;24.358;2023-08-08T05:18:41;90173.00;;;12.59;88.49
76074;BME280;64776;42.636;24.358;2023-08-08T05:21:42;90178.78;;;12.41;88.41
76074;BME280;64776;42.636;24.358;2023-08-08T05:24:43;90185.13;;;12.44;89.24
76074;BME280;64776;42.636;24.358;2023-08-08T05:27:46;90195.63;;;12.64;88.35
76074;BME280;64776;42.636;24.358;2023-08-08T05:30:47;90209.00;;;12.58;87.82
76074;BME280;64776;42.636;24.358;2023-08-08T05:33:48;90206.09;;;12.56;88.57
76074;BME280;64776;42.636;24.358;2023-08-08T05:36:49;90216.81;;;12.62;88.40
76074;BME280;64776;42.636;24.358;2023-08-08T05:39:50;90208.34;;;12.80;86.87
76074;BME280;64776;42.636;24.358;2023-08-08T05:42:52;90200.09;;;12.83;85.90
76074;BME280;64776;42.636;24.358;2023-08-08T05:45:53;90210.50;;;12.76;86.43
76074;BME280;64776;42.636;24.358;2023-08-08T05:48:54;90214.69;;;12.82;87.42
76074;BME280;64776;42.636;24.358;2023-08-08T05:51:54;90198.59;;;12.82;87.86
76074;BME280;64776;42.636;24.358;2023-08-08T05:54:55;90208.84;;;12.84;87.79
76074;BME280;64776;42.636;24.358;2023-08-08T05:57:57;90222.00;;;12.93;87.65
76074;BME280;64776;42.636;24.358;2023-08-08T06:00:58;90240.50;;;12.85;85.48
76074;BME280;64776;42.636;24.358;2023-08-08T06:03:59;90245.34;;;12.81;81.49
76074;BME280;64776;42.636;24.358;2023-08-08T06:07:00;90247.59;;;12.99;82.23
76074;BME280;64776;42.636;24.358;2023-08-08T06:10:00;90232.41;;;12.74;81.66
76074;BME280;64776;42.636;24.358;2023-08-08T06:13:03;90223.69;;;12.90;80.42
76074;BME280;64776;42.636;24.358;2023-08-08T06:16:04;90225.19;;;13.02;79.58
76074;BME280;64776;42.636;24.358;2023-08-08T06:19:04;90232.34;;;13.33;80.11
76074;BME280;64776;42.636;24.358;2023-08-08T06:22:05;90245.25;;;13.35;81.65
76074;BME280;64776;42.636;24.358;2023-08-08T06:25:07;90237.22;;;13.46;81.36
76074;BME280;64776;42.636;24.358;2023-08-08T06:28:09;90234.53;;;13.46;80.45
76074;BME280;64776;42.636;24.358;2023-08-08T06:31:10;90230.41;;;13.50;80.76
76074;BME280;64776;42.636;24.358;2023-08-08T06:34:11;90218.22;;;13.38;80.01
76074;BME280;64776;42.636;24.358;2023-08-08T06:37:11;90217.25;;;13.41;80.97
76074;BME280;64776;42.636;24.358;2023-08-08T06:40:12;90215.31;;;13.64;80.31
76074;BME280;64776;42.636;24.358;2023-08-08T06:43:15;90220.16;;;13.82;80.87
76074;BME280;64776;42.636;24.358;2023-08-08T06:46:15;90237.72;;;13.88;79.98
76074;BME280;64776;42.636;24.358;2023-08-08T06:49:16;90219.44;;;13.65;79.33
76074;BME280;64776;42.636;24.358;2023-08-08T06:52:17;90223.81;;;13.46;81.43
76074;BME280;64776;42.636;24.358;2023-08-08T06:55:23;90233.09;;;13.61;81.14
76074;BME280;64776;42.636;24.358;2023-08-08T06:58:25;90234.28;;;13.94;79.92
76074;BME280;64776;42.636;24.358;2023-08-08T07:01:26;90227.66;;;14.22;76.08
76074;BME280;64776;42.636;24.358;2023-08-08T07:04:28;90239.59;;;14.27;75.42
76074;BME280;64776;42.636;24.358;2023-08-08T07:07:29;90241.84;;;14.17;75.11
76074;BME280;64776;42.636;24.358;2023-08-08T07:10:30;90241.28;;;14.52;72.36
76074;BME280;64776;42.636;24.358;2023-08-08T07:13:32;90245.91;;;14.51;73.93
76074;BME280;64776;42.636;24.358;2023-08-08T07:16:33;90257.69;;;14.37;72.47
76074;BME280;64776;42.636;24.358;2023-08-08T07:19:35;90253.94;;;14.62;72.73
76074;BME280;64776;42.636;24.358;2023-08-08T07:22:36;90258.00;;;14.91;72.69
76074;BME280;64776;42.636;24.358;2023-08-08T07:25:37;90270.59;;;15.18;69.58
76074;BME280;64776;42.636;24.358;2023-08-08T07:28:39;90259.13;;;15.07;68.42
76074;BME280;64776;42.636;24.358;2023-08-08T07:31:40;90259.97;;;15.37;69.19
76074;BME280;64776;42.636;24.358;2023-08-08T07:34:41;90261.75;;;15.23;68.02
76074;BME280;64776;42.636;24.358;2023-08-08T07:37:42;90272.56;;;15.07;69.77
76074;BME280;64776;42.636;24.358;2023-08-08T07:40:44;90275.72;;;15.11;67.81
76074;BME280;64776;42.636;24.358;2023-08-08T07:43:46;90268.63;;;15.13;63.07
76074;BME280;64776;42.636;24.358;2023-08-08T07:46:47;90279.53;;;14.80;67.29
76074;BME280;64776;42.636;24.358;2023-08-08T07:49:47;90280.53;;;14.77;65.74
76074;BME280;64776;42.636;24.358;2023-08-08T07:52:48;90280.69;;;14.90;68.70
76074;BME280;64776;42.636;24.358;2023-08-08T07:55:49;90277.47;;;15.03;65.78
76074;BME280;64776;42.636;24.358;2023-08-08T07:58:51;90273.50;;;15.15;64.72
76074;BME280;64776;42.636;24.358;2023-08-08T08:01:52;90272.16;;;15.49;64.66
76074;BME280;64776;42.636;24.358;2023-08-08T08:04:53;90273.50;;;15.67;64.42
76074;BME280;64776;42.636;24.358;2023-08-08T08:07:53;90276.16;;;15.72;63.42
76074;BME280;64776;42.636;24.358;2023-08-08T08:10:54;90286.06;;;15.88;61.48
76074;BME280;64776;42.636;24.358;2023-08-08T08:13:56;90289.53;;;15.83;61.09
76074;BME280;64776;42.636;24.358;2023-08-08T08:16:57;90295.53;;;16.00;61.34
76074;BME280;64776;42.636;24.358;2023-08-08T08:19:58;90293.81;;;16.03;61.34
76074;BME280;64776;42.636;24.358;2023-08-08T08:22:59;90291.22;;;16.46;61.76
76074;BME280;64776;42.636;24.358;2023-08-08T08:26:00;90284.97;;;16.62;59.08
76074;BME280;64776;42.636;24.358;2023-08-08T08:29:02;90299.63;;;16.37;60.10
76074;BME280;64776;42.636;24.358;2023-08-08T08:32:03;90288.31;;;16.44;58.62
76074;BME280;64776;42.636;24.358;2023-08-08T08:35:05;90298.13;;;16.71;58.75
76074;BME280;64776;42.636;24.358;2023-08-08T08:38:06;90297.31;;;16.76;57.60
76074;BME280;64776;42.636;24.358;2023-08-08T08:41:08;90295.06;;;16.80;59.89
76074;BME280;64776;42.636;24.358;2023-08-08T08:44:14;90294.34;;;16.79;56.58
76074;BME280;64776;42.636;24.358;2023-08-08T08:47:15;90280.38;;;16.81;57.67
76074;BME280;64776;42.636;24.358;2023-08-08T08:50:18;90290.25;;;16.97;58.44
76074;BME280;64776;42.636;24.358;2023-08-08T08:53:19;90279.69;;;16.99;57.42
76074;BME280;64776;42.636;24.358;2023-08-08T08:56:21;90282.72;;;17.33;55.94
76074;BME280;64776;42.636;24.358;2023-08-08T08:59:23;90286.59;;;17.74;55.29
76074;BME280;64776;42.636;24.358;2023-08-08T09:02:24;90276.53;;;17.75;55.32
76074;BME280;64776;42.636;24.358;2023-08-08T09:05:26;90282.09;;;17.96;57.08
76074;BME280;64776;42.636;24.358;2023-08-08T09:08:27;90286.31;;;17.59;54.63
76074;BME280;64776;42.636;24.358;2023-08-08T09:11:27;90289.28;;;17.74;52.65
76074;BME280;64776;42.636;24.358;2023-08-08T09:14:29;90278.59;;;18.01;52.38
76074;BME280;64776;42.636;24.358;2023-08-08T09:17:30;90291.00;;;18.09;51.36
76074;BME280;64776;42.636;24.358;2023-08-08T09:20:32;90288.63;;;17.87;52.77
76074;BME280;64776;42.636;24.358;2023-08-08T09:23:34;90283.03;;;18.17;54.08
76074;BME280;64776;42.636;24.358;2023-08-08T09:26:34;90290.97;;;18.41;51.73
76074;BME280;64776;42.636;24.358;2023-08-08T09:29:37;90291.44;;;18.26;50.86
76074;BME280;64776;42.636;24.358;2023-08-08T09:32:38;90294.38;;;18.28;54.96
76074;BME280;64776;42.636;24.358;2023-08-08T09:35:39;90297.22;;;18.81;51.25
76074;BME280;64776;42.636;24.358;2023-08-08T09:38:40;90293.13;;;18.61;51.88
76074;BME280;64776;42.636;24.358;2023-08-08T09:41:42;90292.53;;;18.94;49.30
76074;BME280;64776;42.636;24.358;2023-08-08T09:44:44;90290.06;;;19.22;50.90
76074;BME280;64776;42.636;24.358;2023-08-08T09:47:45;90294.97;;;19.37;52.44
76074;BME280;64776;42.636;24.358;2023-08-08T09:50:46;90298.78;;;19.02;50.83
76074;BME280;64776;42.636;24.358;2023-08-08T09:53:48;90310.19;;;18.69;50.90
76074;BME280;64776;42.636;24.358;2023-08-08T09:56:50;90307.31;;;18.93;50.67
76074;BME280;64776;42.636;24.358;2023-08-08T09:59:53;90322.06;;;18.92;57.06
76074;BME280;64776;42.636;24.358;2023-08-08T10:02:54;90316.63;;;18.66;49.52
76074;BME280;64776;42.636;24.358;2023-08-08T10:05:56;90311.97;;;18.80;50.38
76074;BME280;64776;42.636;24.358;2023-08-08T10:08:56;90302.09;;;19.08;50.05
76074;BME280;64776;42.636;24.358;2023-08-08T10:11:57;90308.97;;;18.96;51.51
76074;BME280;64776;42.636;24.358;2023-08-08T10:15:00;90315.59;;;18.69;50.44
76074;BME280;64776;42.636;24.358;2023-08-08T10:18:02;90314.28;;;19.02;51.03
76074;BME280;64776;42.636;24.358;2023-08-08T10:21:04;90307.84;;;19.44;48.54
76074;BME280;64776;42.636;24.358;2023-08-08T10:24:07;90312.56;;;19.77;49.70
76074;BME280;64776;42.636;24.358;2023-08-08T10:27:08;90307.63;;;19.16;49.50
76074;BME280;64776;42.636;24.358;2023-08-08T10:30:11;90309.59;;;19.28;49.67
76074;BME280;64776;42.636;24.358;2023-08-08T10:33:18;90309.81;;;19.17;50.73
76074;BME280;64776;42.636;24.358;2023-08-08T10:36:19;90317.06;;;19.75;49.54
76074;BME280;64776;42.636;24.358;2023-08-08T10:39:21;90313.97;;;19.18;48.76
76074;BME280;64776;42.636;24.358;2023-08-08T10:42:23;90313.91;;;19.37;47.67
76074;BME280;64776;42.636;24.358;2023-08-08T10:45:29;90310.19;;;19.74;47.96
76074;BME280;64776;42.636;24.358;2023-08-08T10:48:31;90296.09;;;19.88;46.04
76074;BME280;64776;42.636;24.358;2023-08-08T10:51:33;90302.50;;;20.32;46.64
76074;BME280;64776;42.636;24.358;2023-08-08T10:54:35;90306.72;;;20.20;43.72
76074;BME280;64776;42.636;24.358;2023-08-08T10:57:37;90296.19;;;20.50;43.30
76074;BME280;64776;42.636;24.358;2023-08-08T11:00:40;90293.72;;;20.60;43.62
76074;BME280;64776;42.636;24.358;2023-08-08T11:03:41;90297.41;;;20.28;44.79
76074;BME280;64776;42.636;24.358;2023-08-08T11:06:42;90306.00;;;20.81;44.47
76074;BME280;64776;42.636;24.358;2023-08-08T11:09:43;90310.78;;;21.17;42.42
76074;BME280;64776;42.636;24.358;2023-08-08T11:12:53;90305.47;;;21.32;42.60
76074;BME280;64776;42.636;24.358;2023-08-08T11:15:55;90306.25;;;21.12;41.69
76074;BME280;64776;42.636;24.358;2023-08-08T11:18:56;90314.63;;;20.72;41.59
76074;BME280;64776;42.636;24.358;2023-08-08T11:21:57;90324.94;;;20.53;42.66
76074;BME280;64776;42.636;24.358;2023-08-08T11:24:58;90319.44;;;20.25;43.72
76074;BME280;64776;42.636;24.358;2023-08-08T11:27:59;90312.38;;;20.43;42.17
76074;BME280;64776;42.636;24.358;2023-08-08T11:31:01;90317.00;;;20.76;42.96
76074;BME280;64776;42.636;24.358;2023-08-08T11:34:04;90321.75;;;21.32;41.79
76074;BME280;64776;42.636;24.358;2023-08-08T11:37:05;90316.78;;;21.23;42.57
76074;BME280;64776;42.636;24.358;2023-08-08T11:40:07;90305.13;;;21.35;42.72
76074;BME280;64776;42.636;24.358;2023-08-08T11:43:08;90301.78;;;21.22;42.14
76074;BME280;64776;42.636;24.358;2023-08-08T11:46:11;90308.56;;;21.08;40.43
76074;BME280;64776;42.636;24.358;2023-08-08T11:49:14;90304.63;;;21.80;39.90
76074;BME280;64776;42.636;24.358;2023-08-08T11:52:17;90309.00;;;21.47;40.21
76074;BME280;64776;42.636;24.358;2023-08-08T11:55:18;90299.56;;;21.13;42.34
76074;BME280;64776;42.636;24.358;2023-08-08T11:58:19;90298.28;;;21.42;41.28
76074;BME280;64776;42.636;24.358;2023-08-08T12:01:24;90298.16;;;21.91;40.59
76074;BME280;64776;42.636;24.358;2023-08-08T12:04:25;90308.44;;;22.35;39.23
76074;BME280;64776;42.636;24.358;2023-08-08T12:07:26;90296.88;;;21.56;39.56
76074;BME280;64776;42.636;24.358;2023-08-08T12:10:26;90299.50;;;21.69;39.44
76074;BME280;64776;42.636;24.358;2023-08-08T12:13:27;90299.91;;;21.80;38.68
76074;BME280;64776;42.636;24.358;2023-08-08T12:16:30;90298.63;;;22.17;42.66
76074;BME280;64776;42.636;24.358;2023-08-08T12:19:32;90292.06;;;22.13;38.42
76074;BME280;64776;42.636;24.358;2023-08-08T12:22:33;90281.09;;;22.63;39.20
76074;BME280;64776;42.636;24.358;2023-08-08T12:25:34;90280.03;;;22.82;40.23
76074;BME280;64776;42.636;24.358;2023-08-08T12:28:35;90260.63;;;22.93;38.54
76074;BME280;64776;42.636;24.358;2023-08-08T12:32:03;90269.78;;;21.63;40.36
76074;BME280;64776;42.636;24.358;2023-08-08T12:35:04;90283.81;;;21.82;40.96
76074;BME280;64776;42.636;24.358;2023-08-08T12:38:05;90286.09;;;22.14;41.41
76074;BME280;64776;42.636;24.358;2023-08-08T12:41:06;90285.34;;;22.06;38.13
76074;BME280;64776;42.636;24.358;2023-08-08T12:44:07;90282.38;;;21.89;39.58
76074;BME280;64776;42.636;24.358;2023-08-08T12:47:10;90276.13;;;21.66;39.50
76074;BME280;64776;42.636;24.358;2023-08-08T12:50:11;90274.38;;;21.40;40.23
76074;BME280;64776;42.636;24.358;2023-08-08T12:53:12;90283.00;;;21.59;41.36
76074;BME280;64776;42.636;24.358;2023-08-08T12:56:12;90284.97;;;21.59;40.86
76074;BME280;64776;42.636;24.358;2023-08-08T12:59:13;90283.03;;;22.25;39.59
76074;BME280;64776;42.636;24.358;2023-08-08T13:02:15;90284.97;;;22.10;37.89
76074;BME280;64776;42.636;24.358;2023-08-08T13:05:16;90275.06;;;22.27;39.31
76074;BME280;64776;42.636;24.358;2023-08-08T13:08:17;90287.38;;;22.28;40.07
76074;BME280;64776;42.636;24.358;2023-08-08T13:11:18;90282.81;;;21.65;38.75
76074;BME280;64776;42.636;24.358;2023-08-08T13:14:19;90271.63;;;22.27;39.29
76074;BME280;64776;42.636;24.358;2023-08-08T13:17:21;90261.84;;;23.14;38.09
76074;BME280;64776;42.636;24.358;2023-08-08T13:20:22;90262.78;;;22.72;38.74
76074;BME280;64776;42.636;24.358;2023-08-08T13:23:23;90269.47;;;22.48;38.88
76074;BME280;64776;42.636;24.358;2023-08-08T13:26:23;90279.63;;;22.47;39.10
76074;BME280;64776;42.636;24.358;2023-08-08T13:29:25;90275.84;;;22.81;38.62
76074;BME280;64776;42.636;24.358;2023-08-08T13:32:27;90266.03;;;23.00;37.43
76074;BME280;64776;42.636;24.358;2023-08-08T13:35:28;90266.53;;;23.29;38.05
76074;BME280;64776;42.636;24.358;2023-08-08T13:38:28;90274.00;;;22.53;37.93
76074;BME280;64776;42.636;24.358;2023-08-08T13:41:29;90283.59;;;22.39;38.98
76074;BME280;64776;42.636;24.358;2023-08-08T13:44:30;90283.13;;;21.97;39.71
76074;BME280;64776;42.636;24.358;2023-08-08T13:47:32;90281.97;;;22.51;39.39
76074;BME280;64776;42.636;24.358;2023-08-08T13:50:33;90282.19;;;21.87;40.07
76074;BME280;64776;42.636;24.358;2023-08-08T13:53:35;90289.22;;;20.83;42.35
76074;BME280;64776;42.636;24.358;2023-08-08T13:56:35;90292.84;;;20.85;42.49
76074;BME280;64776;42.636;24.358;2023-08-08T13:59:36;90291.81;;;20.47;43.28
76074;BME280;64776;42.636;24.358;2023-08-08T14:02:38;90297.03;;;20.11;43.37
76074;BME280;64776;42.636;24.358;2023-08-08T14:05:39;90292.75;;;20.29;44.22
76074;BME280;64776;42.636;24.358;2023-08-08T14:08:40;90289.34;;;20.36;43.97
76074;BME280;64776;42.636;24.358;2023-08-08T14:11:41;90291.31;;;20.15;43.81
76074;BME280;64776;42.636;24.358;2023-08-08T14:14:42;90286.41;;;20.13;44.14
76074;BME280;64776;42.636;24.358;2023-08-08T14:17:44;90294.38;;;20.32;43.60
76074;BME280;64776;42.636;24.358;2023-08-08T14:20:44;90298.22;;;20.57;43.54
76074;BME280;64776;42.636;24.358;2023-08-08T14:23:47;90298.28;;;20.85;43.55
76074;BME280;64776;42.636;24.358;2023-08-08T14:26:47;90290.25;;;21.29;42.85
76074;BME280;64776;42.636;24.358;2023-08-08T14:29:48;90293.16;;;21.31;41.63
76074;BME280;64776;42.636;24.358;2023-08-08T14:32:51;90299.03;;;21.14;42.79
76074;BME280;64776;42.636;24.358;2023-08-08T14:35:51;90299.84;;;21.01;42.70
76074;BME280;64776;42.636;24.358;2023-08-08T14:38:52;90290.16;;;21.14;42.35
76074;BME280;64776;42.636;24.358;2023-08-08T14:41:54;90288.78;;;20.99;42.66
76074;BME280;64776;42.636;24.358;2023-08-08T14:44:55;90292.94;;;21.00;42.80
76074;BME280;64776;42.636;24.358;2023-08-08T14:47:57;90295.28;;;20.76;42.41
76074;BME280;64776;42.636;24.358;2023-08-08T14:51:00;90287.97;;;20.63;43.23
76074;BME280;64776;42.636;24.358;2023-08-08T14:54:02;90291.41;;;20.64;44.12
76074;BME280;64776;42.636;24.358;2023-08-08T14:57:03;90289.50;;;20.51;43.73
76074;BME280;64776;42.636;24.358;2023-08-08T15:00:05;90286.25;;;20.32;43.71
76074;BME280;64776;42.636;24.358;2023-08-08T15:03:07;90292.41;;;20.53;44.09
76074;BME280;64776;42.636;24.358;2023-08-08T15:06:08;90286.72;;;20.23;44.65
76074;BME280;64776;42.636;24.358;2023-08-08T15:09:09;90282.97;;;20.13;45.45
76074;BME280;64776;42.636;24.358;2023-08-08T15:12:12;90288.03;;;19.96;45.35
76074;BME280;64776;42.636;24.358;2023-08-08T15:15:14;90288.81;;;20.17;45.58
76074;BME280;64776;42.636;24.358;2023-08-08T15:18:17;90285.53;;;19.98;45.58
76074;BME280;64776;42.636;24.358;2023-08-08T15:21:17;90286.00;;;20.09;45.69
76074;BME280;64776;42.636;24.358;2023-08-08T15:24:18;90281.59;;;19.99;46.65
76074;BME280;64776;42.636;24.358;2023-08-08T15:27:19;90276.31;;;19.46;47.62
76074;BME280;64776;42.636;24.358;2023-08-08T15:30:20;90284.94;;;19.19;48.74
76074;BME280;64776;42.636;24.358;2023-08-08T15:33:22;90288.38;;;19.32;47.25
76074;BME280;64776;42.636;24.358;2023-08-08T15:36:23;90289.00;;;19.25;47.16
76074;BME280;64776;42.636;24.358;2023-08-08T15:39:24;90289.72;;;19.26;46.14
76074;BME280;64776;42.636;24.358;2023-08-08T15:42:25;90287.34;;;19.09;46.53
76074;BME280;64776;42.636;24.358;2023-08-08T15:45:26;90296.16;;;19.23;47.43
76074;BME280;64776;42.636;24.358;2023-08-08T15:48:28;90297.22;;;18.94;47.79